Terminal Aerodrome Forecast
Issued by NWS

Home | Current Version | Previous Version | Text Only | Print | Product List | Glossary On
Versions: 1 2 3 4 5 6 7 8 9 10 11 12 13
952
FTUS41 KCLE 291722
TAFFDY
TAF
KFDY 291722Z 2918/3018 08005KT P6SM VCTS BKN045CB BKN150
      TEMPO 2918/2920 VRB04KT 2SM TSRA OVC030CB
     FM292200 08006KT P6SM VCTS BKN045CB
      TEMPO 2923/3002 4SM TSRA OVC030CB
     FM300200 06004KT 4SM BR VCSH BKN030 BKN100
     FM301000 VRB03KT 2SM BR BKN010
     FM301500 06004KT P6SM SCT025 BKN040=

USA.gov is the U.S. government's official web portal to all federal, state and local government web resources and services.